sensor_id;sensor_type;location;lat;lon;timestamp;pressure;altitude;pressure_sealevel;temperature;humidity
26711;BME280;18311;52.754;18.118;2022-08-03T00:00:43;100796.58;;;17.64;100.00
26711;BME280;18311;52.754;18.118;2022-08-03T00:03:15;100793.87;;;17.64;100.00
26711;BME280;18311;52.754;18.118;2022-08-03T00:05:50;100795.17;;;17.58;100.00
26711;BME280;18311;52.754;18.118;2022-08-03T00:08:22;100799.69;;;17.58;100.00
26711;BME280;18311;52.754;18.118;2022-08-03T00:10:53;100795.38;;;17.55;100.00
26711;BME280;18311;52.754;18.118;2022-08-03T00:13:25;100797.07;;;17.43;100.00
26711;BME280;18311;52.754;18.118;2022-08-03T00:15:56;100802.38;;;17.45;100.00
26711;BME280;18311;52.754;18.118;2022-08-03T00:18:29;100800.42;;;17.47;100.00
26711;BME280;18311;52.754;18.118;2022-08-03T00:21:01;100801.18;;;17.49;100.00
26711;BME280;18311;52.754;18.118;2022-08-03T00:23:34;100800.38;;;17.21;100.00
26711;BME280;18311;52.754;18.118;2022-08-03T00:26:07;100798.34;;;17.25;100.00
26711;BME280;18311;52.754;18.118;2022-08-03T00:28:39;100808.52;;;17.34;100.00
26711;BME280;18311;52.754;18.118;2022-08-03T00:31:11;100793.36;;;17.31;100.00
26711;BME280;18311;52.754;18.118;2022-08-03T00:33:42;100802.55;;;17.29;100.00
26711;BME280;18311;52.754;18.118;2022-08-03T00:36:15;100796.49;;;17.25;100.00
26711;BME280;18311;52.754;18.118;2022-08-03T00:38:46;100802.45;;;17.30;100.00
26711;BME280;18311;52.754;18.118;2022-08-03T00:41:19;100796.89;;;17.19;100.00
26711;BME280;18311;52.754;18.118;2022-08-03T00:43:53;100794.29;;;17.17;100.00
26711;BME280;18311;52.754;18.118;2022-08-03T00:46:25;100797.13;;;17.16;100.00
26711;BME280;18311;52.754;18.118;2022-08-03T00:48:56;100795.17;;;17.18;100.00
26711;BME280;18311;52.754;18.118;2022-08-03T00:51:28;100788.69;;;17.21;100.00
26711;BME280;18311;52.754;18.118;2022-08-03T00:53:59;100789.44;;;17.23;100.00
26711;BME280;18311;52.754;18.118;2022-08-03T00:56:30;100789.77;;;17.18;100.00
26711;BME280;18311;52.754;18.118;2022-08-03T00:59:03;100794.42;;;17.16;100.00
26711;BME280;18311;52.754;18.118;2022-08-03T01:01:34;100794.72;;;17.11;100.00
26711;BME280;18311;52.754;18.118;2022-08-03T01:04:08;100788.75;;;17.06;100.00
26711;BME280;18311;52.754;18.118;2022-08-03T01:12:40;100790.59;;;17.06;100.00
26711;BME280;18311;52.754;18.118;2022-08-03T01:15:14;100786.05;;;17.06;100.00
26711;BME280;18311;52.754;18.118;2022-08-03T01:18:05;100792.77;;;17.13;100.00
26711;BME280;18311;52.754;18.118;2022-08-03T01:20:37;100793.86;;;17.11;100.00
26711;BME280;18311;52.754;18.118;2022-08-03T01:29:00;100789.05;;;17.02;100.00
26711;BME280;18311;52.754;18.118;2022-08-03T01:31:39;100786.91;;;17.07;100.00
26711;BME280;18311;52.754;18.118;2022-08-03T01:34:14;100785.29;;;17.04;100.00
26711;BME280;18311;52.754;18.118;2022-08-03T01:36:50;100783.05;;;17.11;100.00
26711;BME280;18311;52.754;18.118;2022-08-03T01:39:25;100786.61;;;17.11;100.00
26711;BME280;18311;52.754;18.118;2022-08-03T01:42:03;100780.74;;;17.05;100.00
26711;BME280;18311;52.754;18.118;2022-08-03T01:44:39;100787.23;;;17.02;100.00
26711;BME280;18311;52.754;18.118;2022-08-03T01:47:12;100782.26;;;17.09;100.00
26711;BME280;18311;52.754;18.118;2022-08-03T01:49:46;100781.30;;;17.10;100.00
26711;BME280;18311;52.754;18.118;2022-08-03T01:52:19;100779.46;;;17.10;100.00
26711;BME280;18311;52.754;18.118;2022-08-03T01:54:52;100772.24;;;17.11;100.00
26711;BME280;18311;52.754;18.118;2022-08-03T01:57:27;100770.59;;;17.08;100.00
26711;BME280;18311;52.754;18.118;2022-08-03T02:00:00;100772.34;;;17.09;100.00
26711;BME280;18311;52.754;18.118;2022-08-03T02:02:32;100771.16;;;17.13;100.00
26711;BME280;18311;52.754;18.118;2022-08-03T02:05:08;100776.75;;;17.10;100.00
26711;BME280;18311;52.754;18.118;2022-08-03T02:07:40;100771.35;;;17.10;100.00
26711;BME280;18311;52.754;18.118;2022-08-03T02:10:13;100774.84;;;17.12;100.00
26711;BME280;18311;52.754;18.118;2022-08-03T02:12:47;100774.61;;;17.15;100.00
26711;BME280;18311;52.754;18.118;2022-08-03T02:15:20;100777.41;;;17.14;100.00
26711;BME280;18311;52.754;18.118;2022-08-03T02:17:52;100772.24;;;17.11;100.00
26711;BME280;18311;52.754;18.118;2022-08-03T02:20:25;100775.80;;;17.11;100.00
26711;BME280;18311;52.754;18.118;2022-08-03T02:22:57;100770.86;;;17.18;100.00
26711;BME280;18311;52.754;18.118;2022-08-03T02:25:30;100769.73;;;17.08;100.00
26711;BME280;18311;52.754;18.118;2022-08-03T02:28:11;100773.63;;;17.04;100.00
26711;BME280;18311;52.754;18.118;2022-08-03T02:30:40;100771.58;;;17.07;100.00
26711;BME280;18311;52.754;18.118;2022-08-03T02:33:24;100774.88;;;16.98;100.00
26711;BME280;18311;52.754;18.118;2022-08-03T02:35:52;100769.73;;;17.08;100.00
26711;BME280;18311;52.754;18.118;2022-08-03T02:38:27;100773.95;;;17.12;100.00
26711;BME280;18311;52.754;18.118;2022-08-03T02:40:58;100771.61;;;17.20;100.00
26711;BME280;18311;52.754;18.118;2022-08-03T02:43:31;100771.41;;;17.23;100.00
26711;BME280;18311;52.754;18.118;2022-08-03T02:46:07;100771.71;;;17.18;100.00
26711;BME280;18311;52.754;18.118;2022-08-03T02:48:40;100769.77;;;17.21;100.00
26711;BME280;18311;52.754;18.118;2022-08-03T02:51:13;100767.95;;;17.21;100.00
26711;BME280;18311;52.754;18.118;2022-08-03T02:53:47;100771.18;;;17.26;100.00
26711;BME280;18311;52.754;18.118;2022-08-03T02:56:20;100775.63;;;17.27;100.00
26711;BME280;18311;52.754;18.118;2022-08-03T02:58:53;100764.16;;;17.24;100.00
26711;BME280;18311;52.754;18.118;2022-08-03T03:01:26;100763.07;;;17.26;100.00
26711;BME280;18311;52.754;18.118;2022-08-03T03:03:59;100763.07;;;17.26;100.00
26711;BME280;18311;52.754;18.118;2022-08-03T03:06:31;100767.42;;;17.29;100.00
26711;BME280;18311;52.754;18.118;2022-08-03T03:09:03;100767.22;;;17.32;100.00
26711;BME280;18311;52.754;18.118;2022-08-03T03:11:37;100764.28;;;17.35;100.00
26711;BME280;18311;52.754;18.118;2022-08-03T03:14:11;100764.46;;;17.19;100.00
26711;BME280;18311;52.754;18.118;2022-08-03T03:16:44;100761.71;;;17.33;100.00
26711;BME280;18311;52.754;18.118;2022-08-03T03:19:20;100766.78;;;17.38;100.00
26711;BME280;18311;52.754;18.118;2022-08-03T03:21:52;100764.52;;;17.32;100.00
26711;BME280;18311;52.754;18.118;2022-08-03T03:24:24;100763.76;;;17.30;100.00
26711;BME280;18311;52.754;18.118;2022-08-03T03:26:56;100766.51;;;17.15;100.00
26711;BME280;18311;52.754;18.118;2022-08-03T03:29:28;100762.67;;;17.32;100.00
26711;BME280;18311;52.754;18.118;2022-08-03T03:32:01;100760.22;;;17.42;100.00
26711;BME280;18311;52.754;18.118;2022-08-03T03:34:34;100763.23;;;17.50;100.00
26711;BME280;18311;52.754;18.118;2022-08-03T03:37:07;100763.22;;;17.38;100.00
26711;BME280;18311;52.754;18.118;2022-08-03T03:39:39;100767.89;;;17.08;100.00
26711;BME280;18311;52.754;18.118;2022-08-03T03:42:11;100766.01;;;17.23;100.00
26711;BME280;18311;52.754;18.118;2022-08-03T03:44:43;100770.92;;;17.04;100.00
26711;BME280;18311;52.754;18.118;2022-08-03T03:47:14;100768.17;;;17.31;100.00
26711;BME280;18311;52.754;18.118;2022-08-03T03:49:48;100770.80;;;17.45;100.00
26711;BME280;18311;52.754;18.118;2022-08-03T03:52:20;100773.84;;;17.53;100.00
26711;BME280;18311;52.754;18.118;2022-08-03T03:54:54;100777.95;;;17.46;100.00
26711;BME280;18311;52.754;18.118;2022-08-03T03:57:26;100781.00;;;17.54;100.00
26711;BME280;18311;52.754;18.118;2022-08-03T03:59:58;100783.05;;;17.64;100.00
26711;BME280;18311;52.754;18.118;2022-08-03T04:02:30;100781.65;;;17.71;100.00
26711;BME280;18311;52.754;18.118;2022-08-03T04:05:01;100781.09;;;17.53;100.00
26711;BME280;18311;52.754;18.118;2022-08-03T04:17:02;100785.59;;;18.05;100.00
26711;BME280;18311;52.754;18.118;2022-08-03T04:19:42;100785.59;;;18.05;100.00
26711;BME280;18311;52.754;18.118;2022-08-03T04:22:23;100792.83;;;18.05;100.00
26711;BME280;18311;52.754;18.118;2022-08-03T04:25:08;100799.02;;;18.07;100.00
26711;BME280;18311;52.754;18.118;2022-08-03T04:27:40;100801.81;;;18.18;100.00
26711;BME280;18311;52.754;18.118;2022-08-03T04:30:12;100795.33;;;18.21;100.00
26711;BME280;18311;52.754;18.118;2022-08-03T04:32:45;100807.55;;;18.26;100.00
26711;BME280;18311;52.754;18.118;2022-08-03T04:35:19;100811.01;;;18.28;100.00
26711;BME280;18311;52.754;18.118;2022-08-03T04:37:53;100814.80;;;18.39;100.00
26711;BME280;18311;52.754;18.118;2022-08-03T04:40:29;100811.20;;;18.51;100.00
26711;BME280;18311;52.754;18.118;2022-08-03T04:43:01;100813.69;;;18.54;100.00
26711;BME280;18311;52.754;18.118;2022-08-03T04:45:34;100818.53;;;18.62;100.00
26711;BME280;18311;52.754;18.118;2022-08-03T04:48:06;100816.98;;;18.83;100.00
26711;BME280;18311;52.754;18.118;2022-08-03T04:50:37;100816.73;;;18.99;100.00
26711;BME280;18311;52.754;18.118;2022-08-03T04:53:08;100813.63;;;19.17;100.00
26711;BME280;18311;52.754;18.118;2022-08-03T04:55:41;100804.30;;;19.32;100.00
26711;BME280;18311;52.754;18.118;2022-08-03T04:58:12;100811.69;;;19.30;100.00
26711;BME280;18311;52.754;18.118;2022-08-03T05:00:44;100813.58;;;19.41;100.00
26711;BME280;18311;52.754;18.118;2022-08-03T05:03:18;100806.13;;;19.56;100.00
26711;BME280;18311;52.754;18.118;2022-08-03T05:05:54;100810.32;;;19.60;100.00
26711;BME280;18311;52.754;18.118;2022-08-03T05:08:27;100813.73;;;19.75;100.00
26711;BME280;18311;52.754;18.118;2022-08-03T05:11:00;100811.88;;;19.75;100.00
26711;BME280;18311;52.754;18.118;2022-08-03T05:13:32;100799.52;;;19.71;100.00
26711;BME280;18311;52.754;18.118;2022-08-03T05:16:03;100810.14;;;19.74;100.00
26711;BME280;18311;52.754;18.118;2022-08-03T05:18:35;100805.84;;;19.83;100.00
26711;BME280;18311;52.754;18.118;2022-08-03T05:21:07;100804.25;;;19.80;100.00
26711;BME280;18311;52.754;18.118;2022-08-03T05:23:40;100809.91;;;19.77;100.00
26711;BME280;18311;52.754;18.118;2022-08-03T05:26:11;100806.77;;;19.71;100.00
26711;BME280;18311;52.754;18.118;2022-08-03T05:28:42;100814.89;;;19.59;100.00
26711;BME280;18311;52.754;18.118;2022-08-03T05:31:15;100811.69;;;19.66;100.00
26711;BME280;18311;52.754;18.118;2022-08-03T05:33:46;100811.03;;;19.75;100.00
26711;BME280;18311;52.754;18.118;2022-08-03T05:36:18;100812.00;;;19.74;100.00
26711;BME280;18311;52.754;18.118;2022-08-03T05:38:49;100818.91;;;19.78;100.00
26711;BME280;18311;52.754;18.118;2022-08-03T05:41:22;100807.77;;;19.70;100.00
26711;BME280;18311;52.754;18.118;2022-08-03T05:43:55;100813.98;;;19.83;100.00
26711;BME280;18311;52.754;18.118;2022-08-03T05:46:27;100816.11;;;19.91;100.00
26711;BME280;18311;52.754;18.118;2022-08-03T05:48:58;100810.81;;;20.00;100.00
26711;BME280;18311;52.754;18.118;2022-08-03T05:51:30;100817.36;;;19.98;100.00
26711;BME280;18311;52.754;18.118;2022-08-03T05:54:03;100815.02;;;20.16;100.00
26711;BME280;18311;52.754;18.118;2022-08-03T05:56:34;100811.45;;;20.27;100.00
26711;BME280;18311;52.754;18.118;2022-08-03T05:59:06;100816.64;;;20.30;100.00
26711;BME280;18311;52.754;18.118;2022-08-03T06:01:39;100819.37;;;20.18;100.00
26711;BME280;18311;52.754;18.118;2022-08-03T06:04:11;100821.09;;;20.42;100.00
26711;BME280;18311;52.754;18.118;2022-08-03T06:06:42;100816.66;;;20.41;100.00
26711;BME280;18311;52.754;18.118;2022-08-03T06:09:14;100810.23;;;20.65;100.00
26711;BME280;18311;52.754;18.118;2022-08-03T06:11:46;100817.13;;;20.58;100.00
26711;BME280;18311;52.754;18.118;2022-08-03T06:14:17;100818.11;;;20.79;100.00
26711;BME280;18311;52.754;18.118;2022-08-03T06:16:48;100832.19;;;20.96;100.00
26711;BME280;18311;52.754;18.118;2022-08-03T06:19:20;100830.32;;;20.96;100.00
26711;BME280;18311;52.754;18.118;2022-08-03T06:21:53;100827.23;;;21.01;100.00
26711;BME280;18311;52.754;18.118;2022-08-03T06:24:24;100822.16;;;20.96;100.00
26711;BME280;18311;52.754;18.118;2022-08-03T06:26:57;100826.14;;;20.81;100.00
26711;BME280;18311;52.754;18.118;2022-08-03T06:29:28;100823.91;;;20.97;100.00
26711;BME280;18311;52.754;18.118;2022-08-03T06:31:59;100827.30;;;21.22;100.00
26711;BME280;18311;52.754;18.118;2022-08-03T06:34:31;100814.97;;;21.39;100.00
26711;BME280;18311;52.754;18.118;2022-08-03T06:37:04;100829.55;;;21.49;100.00
26711;BME280;18311;52.754;18.118;2022-08-03T06:39:35;100819.42;;;21.51;100.00
26711;BME280;18311;52.754;18.118;2022-08-03T06:42:06;100814.71;;;21.53;100.00
26711;BME280;18311;52.754;18.118;2022-08-03T06:44:39;100812.34;;;21.81;100.00
26711;BME280;18311;52.754;18.118;2022-08-03T06:47:10;100812.84;;;21.96;100.00
26711;BME280;18311;52.754;18.118;2022-08-03T06:49:42;100811.17;;;22.04;100.00
26711;BME280;18311;52.754;18.118;2022-08-03T06:52:16;100810.42;;;22.23;100.00
26711;BME280;18311;52.754;18.118;2022-08-03T06:54:49;100815.96;;;22.33;100.00
26711;BME280;18311;52.754;18.118;2022-08-03T06:57:21;100814.21;;;22.63;100.00
26711;BME280;18311;52.754;18.118;2022-08-03T06:59:52;100807.52;;;22.77;100.00
26711;BME280;18311;52.754;18.118;2022-08-03T07:02:27;100819.72;;;22.83;100.00
26711;BME280;18311;52.754;18.118;2022-08-03T07:04:59;100809.69;;;23.03;100.00
26711;BME280;18311;52.754;18.118;2022-08-03T07:07:31;100815.07;;;23.14;100.00
26711;BME280;18311;52.754;18.118;2022-08-03T07:10:03;100810.34;;;23.45;100.00
26711;BME280;18311;52.754;18.118;2022-08-03T07:12:36;100808.47;;;23.46;100.00
26711;BME280;18311;52.754;18.118;2022-08-03T07:15:09;100812.05;;;23.46;100.00
26711;BME280;18311;52.754;18.118;2022-08-03T07:17:43;100807.90;;;23.42;100.00
26711;BME280;18311;52.754;18.118;2022-08-03T07:20:14;100810.72;;;23.80;100.00
26711;BME280;18311;52.754;18.118;2022-08-03T07:22:47;100811.61;;;23.80;100.00
26711;BME280;18311;52.754;18.118;2022-08-03T07:25:18;100810.47;;;23.73;100.00
26711;BME280;18311;52.754;18.118;2022-08-03T07:27:50;100810.84;;;24.07;100.00
26711;BME280;18311;52.754;18.118;2022-08-03T07:30:21;100812.63;;;24.36;100.00
26711;BME280;18311;52.754;18.118;2022-08-03T07:32:52;100816.16;;;24.56;100.00
26711;BME280;18311;52.754;18.118;2022-08-03T07:35:24;100805.08;;;24.48;100.00
26711;BME280;18311;52.754;18.118;2022-08-03T07:37:56;100806.52;;;24.52;100.00
26711;BME280;18311;52.754;18.118;2022-08-03T07:40:28;100796.84;;;24.67;100.00
26711;BME280;18311;52.754;18.118;2022-08-03T07:43:00;100801.05;;;24.52;100.00
26711;BME280;18311;52.754;18.118;2022-08-03T07:45:32;100796.87;;;24.58;100.00
26711;BME280;18311;52.754;18.118;2022-08-03T07:48:04;100797.84;;;24.66;100.00
26711;BME280;18311;52.754;18.118;2022-08-03T07:50:38;100802.25;;;24.95;100.00
26711;BME280;18311;52.754;18.118;2022-08-03T07:53:10;100793.56;;;25.28;100.00
26711;BME280;18311;52.754;18.118;2022-08-03T07:55:41;100790.25;;;25.24;100.00
26711;BME280;18311;52.754;18.118;2022-08-03T07:58:12;100803.78;;;25.08;100.00
26711;BME280;18311;52.754;18.118;2022-08-03T08:00:53;100799.26;;;25.52;100.00
26711;BME280;18311;52.754;18.118;2022-08-03T08:03:24;100795.41;;;25.63;100.00
26711;BME280;18311;52.754;18.118;2022-08-03T08:05:57;100789.20;;;25.97;100.00
26711;BME280;18311;52.754;18.118;2022-08-03T08:08:30;100788.41;;;25.87;100.00
26711;BME280;18311;52.754;18.118;2022-08-03T08:11:01;100780.16;;;26.05;100.00
26711;BME280;18311;52.754;18.118;2022-08-03T08:13:33;100792.89;;;25.70;100.00
26711;BME280;18311;52.754;18.118;2022-08-03T08:16:07;100791.11;;;26.05;100.00
26711;BME280;18311;52.754;18.118;2022-08-03T08:18:40;100785.75;;;26.21;100.00
26711;BME280;18311;52.754;18.118;2022-08-03T08:21:11;100794.29;;;26.18;100.00
26711;BME280;18311;52.754;18.118;2022-08-03T08:23:42;100786.97;;;26.27;100.00
26711;BME280;18311;52.754;18.118;2022-08-03T08:26:16;100783.61;;;26.41;100.00
26711;BME280;18311;52.754;18.118;2022-08-03T08:28:47;100784.02;;;26.20;100.00
26711;BME280;18311;52.754;18.118;2022-08-03T08:31:19;100779.06;;;26.58;100.00
26711;BME280;18311;52.754;18.118;2022-08-03T08:33:51;100788.38;;;26.73;100.00
26711;BME280;18311;52.754;18.118;2022-08-03T08:36:24;100780.30;;;26.64;100.00
26711;BME280;18311;52.754;18.118;2022-08-03T08:38:56;100777.96;;;26.85;100.00
26711;BME280;18311;52.754;18.118;2022-08-03T08:41:27;100779.24;;;27.16;100.00
26711;BME280;18311;52.754;18.118;2022-08-03T08:44:03;100771.50;;;27.11;100.00
26711;BME280;18311;52.754;18.118;2022-08-03T08:46:34;100777.86;;;26.61;100.00
26711;BME280;18311;52.754;18.118;2022-08-03T08:49:08;100780.38;;;26.88;100.00
26711;BME280;18311;52.754;18.118;2022-08-03T08:51:40;100775.96;;;26.61;100.00
26711;BME280;18311;52.754;18.118;2022-08-03T08:56:56;100784.52;;;27.01;100.00
26711;BME280;18311;52.754;18.118;2022-08-03T08:59:33;100784.88;;;27.06;100.00
26711;BME280;18311;52.754;18.118;2022-08-03T09:02:07;100787.63;;;27.22;100.00
26711;BME280;18311;52.754;18.118;2022-08-03T09:04:39;100787.70;;;27.47;100.00
26711;BME280;18311;52.754;18.118;2022-08-03T09:07:11;100785.98;;;27.29;100.00
26711;BME280;18311;52.754;18.118;2022-08-03T09:09:44;100785.48;;;27.50;100.00
26711;BME280;18311;52.754;18.118;2022-08-03T09:12:17;100782.73;;;27.50;100.00
26711;BME280;18311;52.754;18.118;2022-08-03T09:14:51;100781.16;;;27.81;100.00
26711;BME280;18311;52.754;18.118;2022-08-03T09:17:24;100780.50;;;27.54;98.93
26711;BME280;18311;52.754;18.118;2022-08-03T09:20:06;100776.88;;;27.70;100.00
26711;BME280;18311;52.754;18.118;2022-08-03T09:25:41;100785.45;;;28.00;100.00
26711;BME280;18311;52.754;18.118;2022-08-03T09:31:37;100781.23;;;28.29;94.45
26711;BME280;18311;52.754;18.118;2022-08-03T09:34:12;100783.39;;;28.50;100.00
26711;BME280;18311;52.754;18.118;2022-08-03T09:36:49;100771.14;;;28.21;94.20
26711;BME280;18311;52.754;18.118;2022-08-03T09:39:23;100769.81;;;28.00;94.30
26711;BME280;18311;52.754;18.118;2022-08-03T09:42:08;100765.98;;;28.18;97.84
26711;BME280;18311;52.754;18.118;2022-08-03T09:44:43;100773.71;;;28.22;95.72
26711;BME280;18311;52.754;18.118;2022-08-03T09:47:27;100762.89;;;28.21;98.32
26711;BME280;18311;52.754;18.118;2022-08-03T09:52:40;100759.80;;;28.63;84.72
26711;BME280;18311;52.754;18.118;2022-08-03T09:55:14;100767.28;;;28.78;92.06
26711;BME280;18311;52.754;18.118;2022-08-03T09:57:47;100758.11;;;28.62;88.18
26711;BME280;18311;52.754;18.118;2022-08-03T10:00:19;100768.31;;;28.37;97.17
26711;BME280;18311;52.754;18.118;2022-08-03T10:02:51;100761.39;;;28.02;97.56
26711;BME280;18311;52.754;18.118;2022-08-03T10:05:30;100764.41;;;28.23;90.94
26711;BME280;18311;52.754;18.118;2022-08-03T10:07:58;100757.38;;;28.69;93.75
26711;BME280;18311;52.754;18.118;2022-08-03T10:10:31;100753.80;;;28.52;86.42
26711;BME280;18311;52.754;18.118;2022-08-03T10:13:03;100769.16;;;28.86;82.08
26711;BME280;18311;52.754;18.118;2022-08-03T10:15:34;100760.27;;;28.75;75.83
26711;BME280;18311;52.754;18.118;2022-08-03T10:18:07;100755.99;;;28.73;80.40
26711;BME280;18311;52.754;18.118;2022-08-03T10:20:58;100761.52;;;28.96;76.60
26711;BME280;18311;52.754;18.118;2022-08-03T10:23:37;100751.41;;;28.88;72.39
26711;BME280;18311;52.754;18.118;2022-08-03T10:26:06;100743.44;;;29.25;71.65
26711;BME280;18311;52.754;18.118;2022-08-03T10:28:40;100749.33;;;29.60;75.61
26711;BME280;18311;52.754;18.118;2022-08-03T10:31:14;100751.83;;;29.31;76.83
26711;BME280;18311;52.754;18.118;2022-08-03T10:33:48;100745.02;;;29.42;71.92
26711;BME280;18311;52.754;18.118;2022-08-03T10:36:21;100746.78;;;29.12;74.69
26711;BME280;18311;52.754;18.118;2022-08-03T10:38:54;100749.61;;;29.50;71.63
26711;BME280;18311;52.754;18.118;2022-08-03T10:41:30;100744.67;;;29.83;87.24
26711;BME280;18311;52.754;18.118;2022-08-03T10:44:05;100742.33;;;29.72;71.21
26711;BME280;18311;52.754;18.118;2022-08-03T10:46:38;100742.58;;;29.85;75.81
26711;BME280;18311;52.754;18.118;2022-08-03T10:49:12;100735.81;;;29.88;73.23
26711;BME280;18311;52.754;18.118;2022-08-03T10:51:45;100743.09;;;29.66;73.92
26711;BME280;18311;52.754;18.118;2022-08-03T10:54:37;100745.14;;;30.02;70.86
26711;BME280;18311;52.754;18.118;2022-08-03T11:00:19;100740.77;;;30.22;68.63
26711;BME280;18311;52.754;18.118;2022-08-03T11:03:06;100747.05;;;30.31;73.90
26711;BME280;18311;52.754;18.118;2022-08-03T11:05:42;100741.37;;;29.65;63.87
26711;BME280;18311;52.754;18.118;2022-08-03T11:08:29;100735.14;;;29.48;70.36
26711;BME280;18311;52.754;18.118;2022-08-03T11:16:49;100729.64;;;29.48;71.01
26711;BME280;18311;52.754;18.118;2022-08-03T11:19:21;100723.00;;;30.10;66.76
26711;BME280;18311;52.754;18.118;2022-08-03T11:21:57;100727.45;;;30.26;70.07
26711;BME280;18311;52.754;18.118;2022-08-03T11:24:55;100727.02;;;30.37;65.32
26711;BME280;18311;52.754;18.118;2022-08-03T11:27:21;100729.63;;;30.60;63.46
26711;BME280;18311;52.754;18.118;2022-08-03T11:35:55;100723.56;;;30.20;57.49
26711;BME280;18311;52.754;18.118;2022-08-03T11:38:10;100719.86;;;29.98;58.13
26711;BME280;18311;52.754;18.118;2022-08-03T11:46:05;100710.86;;;30.71;53.25
26711;BME280;18311;52.754;18.118;2022-08-03T11:48:42;100712.82;;;30.77;54.44
26711;BME280;18311;52.754;18.118;2022-08-03T11:51:25;100711.52;;;30.73;56.54
26711;BME280;18311;52.754;18.118;2022-08-03T11:53:58;100703.61;;;31.06;54.46
26711;BME280;18311;52.754;18.118;2022-08-03T11:56:45;100713.66;;;31.35;53.83
26711;BME280;18311;52.754;18.118;2022-08-03T11:59:16;100710.80;;;30.85;52.00
26711;BME280;18311;52.754;18.118;2022-08-03T12:01:49;100702.59;;;30.92;55.80
26711;BME280;18311;52.754;18.118;2022-08-03T12:04:20;100698.73;;;31.08;49.49
26711;BME280;18311;52.754;18.118;2022-08-03T12:07:00;100691.45;;;31.00;52.46
26711;BME280;18311;52.754;18.118;2022-08-03T12:09:32;100695.88;;;30.80;53.41
26711;BME280;18311;52.754;18.118;2022-08-03T12:12:05;100700.59;;;30.64;54.05
26711;BME280;18311;52.754;18.118;2022-08-03T12:14:36;100693.52;;;30.25;57.76
26711;BME280;18311;52.754;18.118;2022-08-03T12:17:09;100686.66;;;30.51;59.32
26711;BME280;18311;52.754;18.118;2022-08-03T12:19:44;100692.11;;;31.02;63.75
26711;BME280;18311;52.754;18.118;2022-08-03T12:22:15;100689.58;;;31.29;54.24
26711;BME280;18311;52.754;18.118;2022-08-03T12:24:46;100679.85;;;30.90;52.05
26711;BME280;18311;52.754;18.118;2022-08-03T12:27:27;100677.12;;;31.40;55.54
26711;BME280;18311;52.754;18.118;2022-08-03T12:29:59;100687.64;;;31.79;55.73
26711;BME280;18311;52.754;18.118;2022-08-03T12:32:31;100683.59;;;31.75;54.00
26711;BME280;18311;52.754;18.118;2022-08-03T12:35:02;100687.08;;;31.56;52.85
26711;BME280;18311;52.754;18.118;2022-08-03T12:37:34;100686.11;;;31.49;50.25
26711;BME280;18311;52.754;18.118;2022-08-03T12:40:07;100684.98;;;31.65;53.15
26711;BME280;18311;52.754;18.118;2022-08-03T12:42:41;100681.37;;;31.64;54.18
26711;BME280;18311;52.754;18.118;2022-08-03T12:45:26;100676.84;;;31.06;53.41
26711;BME280;18311;52.754;18.118;2022-08-03T12:48:00;100673.23;;;31.06;50.47
26711;BME280;18311;52.754;18.118;2022-08-03T12:50:33;100668.23;;;31.16;49.38
26711;BME280;18311;52.754;18.118;2022-08-03T12:53:09;100669.96;;;31.46;50.22
26711;BME280;18311;52.754;18.118;2022-08-03T12:55:39;100666.77;;;31.49;51.82
26711;BME280;18311;52.754;18.118;2022-08-03T12:58:20;100661.15;;;31.07;50.15
26711;BME280;18311;52.754;18.118;2022-08-03T13:00:57;100661.56;;;31.32;51.06
26711;BME280;18311;52.754;18.118;2022-08-03T13:03:38;100665.77;;;31.85;52.83
26711;BME280;18311;52.754;18.118;2022-08-03T13:06:10;100659.81;;;31.24;50.64
26711;BME280;18311;52.754;18.118;2022-08-03T13:08:42;100655.64;;;31.35;49.27
26711;BME280;18311;52.754;18.118;2022-08-03T13:11:25;100652.90;;;31.14;48.05
26711;BME280;18311;52.754;18.118;2022-08-03T13:13:58;100651.47;;;31.46;48.86
26711;BME280;18311;52.754;18.118;2022-08-03T13:16:30;100649.87;;;31.30;48.89
26711;BME280;18311;52.754;18.118;2022-08-03T13:19:02;100649.84;;;31.02;48.10
26711;BME280;18311;52.754;18.118;2022-08-03T13:21:35;100646.47;;;30.85;49.95
26711;BME280;18311;52.754;18.118;2022-08-03T13:24:09;100639.91;;;31.08;48.52
26711;BME280;18311;52.754;18.118;2022-08-03T13:26:43;100645.42;;;31.08;50.01
26711;BME280;18311;52.754;18.118;2022-08-03T13:29:13;100658.01;;;30.74;51.31
26711;BME280;18311;52.754;18.118;2022-08-03T13:31:45;100645.17;;;31.02;53.28
26711;BME280;18311;52.754;18.118;2022-08-03T13:34:17;100652.90;;;31.14;50.52
26711;BME280;18311;52.754;18.118;2022-08-03T13:36:51;100641.20;;;30.90;53.11
26711;BME280;18311;52.754;18.118;2022-08-03T13:39:24;100649.09;;;31.43;46.84
26711;BME280;18311;52.754;18.118;2022-08-03T13:41:57;100643.05;;;30.83;47.98
26711;BME280;18311;52.754;18.118;2022-08-03T13:44:28;100633.73;;;31.05;47.25
26711;BME280;18311;52.754;18.118;2022-08-03T13:46:59;100635.12;;;30.95;51.07
26711;BME280;18311;52.754;18.118;2022-08-03T13:49:31;100636.00;;;30.80;49.09
26711;BME280;18311;52.754;18.118;2022-08-03T13:52:03;100635.03;;;31.10;47.74
26711;BME280;18311;52.754;18.118;2022-08-03T13:54:34;100629.52;;;30.88;48.55
26711;BME280;18311;52.754;18.118;2022-08-03T13:57:07;100627.85;;;31.15;49.20